Time;durP1;ratioP1;P1;durP2;ratioP2;P2;SDS_P1;SDS_P2;PMS_P1;PMS_P2;Temp;Humidity;BMP_temperature;BMP_pressure;BME280_temperature;BME280_humidity;BME280_pressure;Samples;Min_cycle;Max_cycle;Signal;HPM_P1;HPM_P2
2021/05/24 00:00:26;;;;;;;7.30;1.80;;;512.60;2252.80;;;;;;5069537;28;20078;-74
2021/05/24 00:02:53;;;;;;;7.90;2.22;;;512.50;2252.80;;;;;;5069310;28;20120;-73
2021/05/24 00:05:22;;;;;;;6.70;1.75;;;512.50;2278.40;;;;;;5069444;28;20485;-73
2021/05/24 00:07:48;;;;;;;3.88;1.55;;;512.40;2304.00;;;;;;5069342;28;20078;-74
2021/05/24 00:10:18;;;;;;;4.13;1.90;;;512.30;2329.60;;;;;;5069480;28;20414;-74
2021/05/24 00:12:48;;;;;;;4.43;1.60;;;512.30;2304.00;;;;;;5069316;28;20377;-74
2021/05/24 00:15:19;;;;;;;5.55;1.98;;;512.20;2329.60;;;;;;5069202;28;20056;-74
2021/05/24 00:17:47;;;;;;;5.97;1.70;;;512.20;2329.60;;;;;;5052764;28;20021;-74
2021/05/24 00:20:13;;;;;;;3.70;1.73;;;512.00;2355.20;;;;;;5069108;28;20465;-79
2021/05/24 00:22:39;;;;;;;4.32;1.60;;;512.50;2380.80;;;;;;5069054;28;20061;-77
2021/05/24 00:25:05;;;;;;;5.63;1.80;;;487.30;2380.80;;;;;;5069284;28;20071;-76
2021/05/24 00:27:32;;;;;;;5.80;1.75;;;487.20;2380.80;;;;;;5069203;28;20048;-76
2021/05/24 00:29:58;;;;;;;5.90;1.60;;;487.30;2380.80;;;;;;5053316;28;20526;-77
2021/05/24 00:32:24;;;;;;;3.95;1.60;;;487.20;2355.20;;;;;;5053802;28;20021;-77
2021/05/24 00:34:50;;;;;;;4.88;1.80;;;487.20;2380.80;;;;;;5069203;28;20104;-77
2021/05/24 00:37:16;;;;;;;3.60;1.50;;;487.20;2355.20;;;;;;5068947;28;20049;-76
2021/05/24 00:39:43;;;;;;;3.97;2.25;;;486.90;2355.20;;;;;;5053002;28;20044;-77
2021/05/24 00:42:09;;;;;;;3.55;1.40;;;487.20;2355.20;;;;;;5069143;28;20356;-76
2021/05/24 00:44:35;;;;;;;4.20;1.50;;;487.10;2355.20;;;;;;5068760;28;20017;-77
2021/05/24 00:47:01;;;;;;;5.90;2.28;;;487.20;2355.20;;;;;;5053498;28;20017;-77
2021/05/24 00:49:31;;;;;;;6.18;1.50;;;512.00;2355.20;;;;;;5069126;28;20048;-77
2021/05/24 00:51:57;;;;;;;4.90;1.67;;;487.00;2380.80;;;;;;5068529;28;20049;-77
2021/05/24 00:54:25;;;;;;;4.40;1.75;;;487.20;2355.20;;;;;;5068611;28;20055;-77
2021/05/24 00:56:53;;;;;;;4.88;1.70;;;487.10;2355.20;;;;;;5053025;28;20407;-76
2021/05/24 00:59:20;;;;;;;4.90;1.77;;;487.00;2380.80;;;;;;5068540;28;20040;-77
2021/05/24 01:01:46;;;;;;;8.40;1.77;;;487.00;2380.80;;;;;;5068848;28;20021;-76
2021/05/24 01:04:14;;;;;;;3.90;1.73;;;487.10;2380.80;;;;;;5068688;28;20427;-75
2021/05/24 01:06:41;;;;;;;6.03;2.10;;;487.00;2380.80;;;;;;5053133;28;20441;-77
2021/05/24 01:09:06;;;;;;;4.13;1.50;;;487.00;2380.80;;;;;;5068759;28;20028;-76
2021/05/24 01:11:32;;;;;;;3.78;1.40;;;487.00;2380.80;;;;;;5052931;28;20365;-78
2021/05/24 01:13:59;;;;;;;4.68;1.48;;;486.80;2380.80;;;;;;5068775;28;20445;-76
2021/05/24 01:16:25;;;;;;;7.60;1.85;;;486.50;2380.80;;;;;;5053594;28;20021;-76
2021/05/24 01:18:51;;;;;;;4.80;2.20;;;486.70;2380.80;;;;;;5053123;28;20025;-77
2021/05/24 01:21:18;;;;;;;3.80;1.52;;;486.80;2380.80;;;;;;5053064;28;20021;-78
2021/05/24 01:23:45;;;;;;;4.78;1.80;;;486.60;2380.80;;;;;;5068744;28;20071;-77
2021/05/24 01:26:13;;;;;;;8.43;2.28;;;486.90;2380.80;;;;;;5068488;28;20024;-78
2021/05/24 01:28:39;;;;;;;7.15;1.70;;;486.90;2380.80;;;;;;5068529;28;20368;-76
2021/05/24 01:31:06;;;;;;;5.28;1.77;;;486.80;2380.80;;;;;;5068694;28;20032;-76
2021/05/24 01:33:34;;;;;;;8.40;2.78;;;486.40;2380.80;;;;;;5068095;28;20032;-77
2021/05/24 01:36:02;;;;;;;4.60;2.00;;;486.80;2380.80;;;;;;5068468;28;20017;-76
2021/05/24 01:38:36;;;;;;;4.63;1.65;;;486.80;2380.80;;;;;;5068343;28;20389;-76
2021/05/24 01:41:02;;;;;;;3.92;2.00;;;486.80;2380.80;;;;;;5067764;28;20067;-76
2021/05/24 01:43:29;;;;;;;4.80;1.70;;;487.00;2380.80;;;;;;5052191;28;20021;-76
2021/05/24 01:45:56;;;;;;;5.25;1.73;;;486.80;2380.80;;;;;;5068251;28;20108;-78
2021/05/24 01:48:22;;;;;;;3.20;1.80;;;486.70;2380.80;;;;;;5068539;28;20346;-75
2021/05/24 01:50:48;;;;;;;4.95;1.80;;;486.70;2380.80;;;;;;5068328;28;20033;-77
2021/05/24 01:53:14;;;;;;;3.55;1.50;;;486.60;2380.80;;;;;;5068324;28;20563;-77
2021/05/24 01:55:41;;;;;;;4.38;1.60;;;486.70;2380.80;;;;;;5068410;28;20033;-77
2021/05/24 01:58:08;;;;;;;4.55;2.13;;;486.80;2380.80;;;;;;5068222;28;20112;-75
2021/05/24 02:00:34;;;;;;;5.63;1.80;;;486.80;2380.80;;;;;;5052685;28;20040;-77
2021/05/24 02:03:00;;;;;;;5.07;1.80;;;486.70;2380.80;;;;;;5053658;28;20021;-76
2021/05/24 02:05:27;;;;;;;3.65;1.80;;;486.70;2380.80;;;;;;5071909;28;20051;-77
2021/05/24 02:07:55;;;;;;;4.53;1.65;;;486.60;2380.80;;;;;;5055490;28;20502;-78
2021/05/24 02:10:24;;;;;;;8.98;2.15;;;486.60;2380.80;;;;;;5071093;28;20029;-76
2021/05/24 02:12:49;;;;;;;4.32;1.80;;;486.40;2380.80;;;;;;5071107;28;20025;-77
2021/05/24 02:15:21;;;;;;;7.22;2.60;;;486.50;2380.80;;;;;;5055770;28;20021;-78
2021/05/24 02:17:48;;;;;;;10.20;2.20;;;486.70;2380.80;;;;;;5071901;28;20036;-76
2021/05/24 02:20:25;;;;;;;2.83;1.50;;;486.70;2380.80;;;;;;5071506;28;20780;-77
2021/05/24 02:22:52;;;;;;;4.05;1.90;;;486.80;2380.80;;;;;;5071014;28;20024;-78
2021/05/24 02:25:18;;;;;;;7.38;2.80;;;486.60;2380.80;;;;;;5070847;28;20017;-78
2021/05/24 02:27:44;;;;;;;7.10;2.33;;;461.70;2380.80;;;;;;5070652;28;20032;-77
2021/05/24 02:30:13;;;;;;;8.02;2.33;;;461.50;2380.80;;;;;;5071140;28;20055;-76
2021/05/24 02:32:39;;;;;;;5.20;2.20;;;461.40;2380.80;;;;;;5055703;28;20029;-76
2021/05/24 02:35:07;;;;;;;3.67;2.22;;;461.40;2380.80;;;;;;5055815;28;20024;-76
2021/05/24 02:37:32;;;;;;;5.47;2.10;;;461.40;2380.80;;;;;;5071029;28;20060;-76
2021/05/24 02:39:58;;;;;;;4.88;2.20;;;461.40;2380.80;;;;;;5070356;28;20534;-76
2021/05/24 02:42:24;;;;;;;11.50;2.53;;;461.30;2380.80;;;;;;5055370;28;20032;-76
2021/05/24 02:44:50;;;;;;;3.95;2.10;;;461.30;2380.80;;;;;;5071120;28;20025;-77
2021/05/24 02:47:16;;;;;;;5.35;2.55;;;461.40;2380.80;;;;;;5055713;28;20021;-76
2021/05/24 02:49:44;;;;;;;6.00;2.78;;;461.40;2380.80;;;;;;5070908;28;20464;-77
2021/05/24 02:52:11;;;;;;;6.45;2.65;;;461.60;2380.80;;;;;;5070961;28;20025;-76
2021/05/24 02:54:37;;;;;;;7.13;2.72;;;461.70;2380.80;;;;;;5070999;28;20067;-77
2021/05/24 02:57:03;;;;;;;5.78;2.78;;;461.50;2380.80;;;;;;5055321;28;20376;-77
2021/05/24 02:59:29;;;;;;;4.85;2.45;;;461.40;2380.80;;;;;;5070808;28;20032;-77
2021/05/24 03:01:55;;;;;;;7.13;2.50;;;461.50;2380.80;;;;;;5070868;28;20464;-77
2021/05/24 03:04:26;;;;;;;5.13;2.72;;;461.30;2380.80;;;;;;5070601;28;20075;-76
2021/05/24 03:06:52;;;;;;;6.03;2.92;;;461.50;2380.80;;;;;;5070767;28;20021;-76
2021/05/24 03:09:17;;;;;;;4.70;3.08;;;461.50;2380.80;;;;;;5070882;28;20079;-78
2021/05/24 03:11:43;;;;;;;7.28;2.50;;;461.50;2380.80;;;;;;5070558;28;20115;-77
2021/05/24 03:14:09;;;;;;;5.80;2.78;;;461.40;2380.80;;;;;;5055072;28;20104;-77
2021/05/24 03:16:35;;;;;;;5.60;2.97;;;461.40;2380.80;;;;;;5055062;28;20021;-76
2021/05/24 03:19:01;;;;;;;4.65;2.58;;;461.30;2380.80;;;;;;5054900;28;20509;-76
2021/05/24 03:21:27;;;;;;;7.55;3.00;;;461.40;2380.80;;;;;;5070519;28;20445;-76
2021/05/24 03:23:52;;;;;;;4.50;2.60;;;461.20;2380.80;;;;;;5070267;28;20107;-76
2021/05/24 03:26:18;;;;;;;8.73;3.00;;;461.10;2380.80;;;;;;5054807;28;20346;-76
2021/05/24 03:28:45;;;;;;;6.65;2.60;;;461.20;2380.80;;;;;;5054549;28;20024;-76
2021/05/24 03:31:11;;;;;;;10.63;2.90;;;461.20;2380.80;;;;;;5070171;28;20407;-76
2021/05/24 03:33:38;;;;;;;6.38;2.45;;;461.30;2380.80;;;;;;5070285;28;20353;-77
2021/05/24 03:36:05;;;;;;;4.47;2.58;;;461.20;2380.80;;;;;;5070241;28;20021;-77
2021/05/24 03:38:31;;;;;;;10.10;2.80;;;461.30;2380.80;;;;;;5069619;28;20049;-77
2021/05/24 03:40:57;;;;;;;9.43;2.80;;;461.30;2380.80;;;;;;5069902;28;20043;-77
2021/05/24 03:43:23;;;;;;;11.05;3.10;;;461.10;2380.80;;;;;;5054560;28;20047;-76
2021/05/24 03:45:49;;;;;;;6.57;2.90;;;461.30;2380.80;;;;;;5069795;28;20021;-77
2021/05/24 03:48:15;;;;;;;10.25;3.15;;;461.40;2380.80;;;;;;5069923;28;20024;-77
2021/05/24 03:50:41;;;;;;;6.43;2.72;;;461.20;2380.80;;;;;;5069947;28;20025;-76
2021/05/24 03:53:07;;;;;;;7.18;3.20;;;461.30;2380.80;;;;;;5054326;28;20025;-77
2021/05/24 03:55:33;;;;;;;7.18;2.63;;;461.40;2380.80;;;;;;5069676;28;20414;-76
2021/05/24 03:57:59;;;;;;;8.77;2.95;;;461.30;2380.80;;;;;;5069873;28;20021;-77
2021/05/24 04:00:25;;;;;;;7.75;3.33;;;461.30;2380.80;;;;;;5069546;28;20032;-79
2021/05/24 04:02:51;;;;;;;11.90;3.65;;;461.20;2380.80;;;;;;5069648;28;20050;-77
2021/05/24 04:05:31;;;;;;;6.85;3.20;;;461.00;2380.80;;;;;;5069810;28;20115;-78
2021/05/24 04:07:58;;;;;;;8.50;3.63;;;461.00;2380.80;;;;;;5054451;28;20017;-77
2021/05/24 04:10:38;;;;;;;7.25;3.53;;;461.10;2380.80;;;;;;5054166;28;20108;-77
2021/05/24 04:13:05;;;;;;;5.88;3.60;;;461.10;2380.80;;;;;;5069529;28;20064;-77
2021/05/24 04:15:31;;;;;;;6.20;3.08;;;461.20;2380.80;;;;;;5069502;28;20448;-77
2021/05/24 04:18:00;;;;;;;7.18;3.33;;;461.30;2380.80;;;;;;5053943;28;20064;-77
2021/05/24 04:20:26;;;;;;;9.07;3.50;;;461.40;2380.80;;;;;;5053808;28;20033;-76
2021/05/24 04:22:53;;;;;;;9.85;3.13;;;461.40;2380.80;;;;;;5068995;28;20028;-77
2021/05/24 04:25:19;;;;;;;8.73;3.80;;;461.40;2380.80;;;;;;5068988;28;20043;-78
2021/05/24 04:27:45;;;;;;;7.57;4.22;;;461.40;2380.80;;;;;;5069007;28;20130;-77
2021/05/24 04:30:13;;;;;;;7.80;4.47;;;461.40;2380.80;;;;;;5069093;28;20137;-76
2021/05/24 04:32:39;;;;;;;8.30;4.25;;;461.50;2380.80;;;;;;5054124;28;20455;-78
2021/05/24 04:35:07;;;;;;;6.95;3.50;;;461.50;2380.80;;;;;;5068978;28;20025;-77
2021/05/24 04:37:33;;;;;;;7.88;3.60;;;461.50;2380.80;;;;;;5068851;28;20025;-78
2021/05/24 04:39:59;;;;;;;7.15;3.60;;;461.50;2380.80;;;;;;5069037;28;20057;-77
2021/05/24 04:42:25;;;;;;;7.43;3.70;;;461.60;2380.80;;;;;;5053217;28;20086;-77
2021/05/24 04:44:51;;;;;;;6.18;3.88;;;461.50;2380.80;;;;;;5069065;28;20115;-75
2021/05/24 04:47:17;;;;;;;10.43;3.90;;;461.50;2380.80;;;;;;5069103;28;20060;-78
2021/05/24 04:49:49;;;;;;;7.75;3.67;;;461.50;2380.80;;;;;;5068574;28;20036;-77
2021/05/24 04:52:15;;;;;;;10.55;3.70;;;461.50;2380.80;;;;;;5053261;28;20013;-75
2021/05/24 04:54:42;;;;;;;13.63;8.20;;;461.40;2380.80;;;;;;5068861;28;20371;-77
2021/05/24 04:57:08;;;;;;;8.95;5.85;;;461.50;2380.80;;;;;;5053580;28;20464;-76
2021/05/24 04:59:34;;;;;;;8.50;4.43;;;461.40;2380.80;;;;;;5053303;28;20029;-76
2021/05/24 05:02:00;;;;;;;10.65;4.60;;;461.50;2380.80;;;;;;5053070;28;20127;-77
2021/05/24 05:04:26;;;;;;;7.47;4.20;;;461.50;2380.80;;;;;;5068988;28;20017;-78
2021/05/24 05:06:53;;;;;;;7.28;4.55;;;461.40;2380.80;;;;;;5068851;28;20492;-77
2021/05/24 05:09:19;;;;;;;8.25;4.18;;;461.50;2380.80;;;;;;5068674;28;20430;-77
2021/05/24 05:11:45;;;;;;;14.57;5.95;;;461.70;2380.80;;;;;;5068974;28;20108;-78
2021/05/24 05:14:10;;;;;;;8.90;4.93;;;461.70;2380.80;;;;;;5052995;28;20465;-77
2021/05/24 05:16:36;;;;;;;9.27;4.63;;;461.70;2380.80;;;;;;5068645;28;20377;-77
2021/05/24 05:19:02;;;;;;;8.93;4.18;;;461.70;2380.80;;;;;;5052907;28;20104;-77
2021/05/24 05:21:28;;;;;;;7.15;3.90;;;486.40;2380.80;;;;;;5068682;28;20032;-77
2021/05/24 05:23:54;;;;;;;5.63;3.97;;;461.70;2380.80;;;;;;5052824;28;20373;-77
2021/05/24 05:26:20;;;;;;;9.30;4.70;;;486.40;2380.80;;;;;;5068617;28;20021;-76
2021/05/24 05:28:46;;;;;;;6.88;4.53;;;486.40;2380.80;;;;;;5053308;28;20029;-77
2021/05/24 05:31:12;;;;;;;6.32;4.70;;;486.40;2380.80;;;;;;5068472;28;20040;-76
2021/05/24 05:33:38;;;;;;;14.50;7.00;;;486.70;2380.80;;;;;;5068540;28;20020;-77
2021/05/24 05:36:04;;;;;;;8.63;5.30;;;486.40;2380.80;;;;;;5068607;28;20108;-76
2021/05/24 05:38:31;;;;;;;6.43;4.70;;;486.50;2380.80;;;;;;5069742;28;20044;-78
2021/05/24 05:40:58;;;;;;;11.23;5.03;;;486.40;2380.80;;;;;;5072243;28;20029;-76
2021/05/24 05:43:24;;;;;;;8.05;4.70;;;486.50;2380.80;;;;;;5071879;28;20434;-78
2021/05/24 05:45:50;;;;;;;7.55;5.15;;;486.60;2380.80;;;;;;5071901;28;20100;-78
2021/05/24 05:48:15;;;;;;;9.13;4.45;;;486.50;2380.80;;;;;;5056841;28;20461;-77
2021/05/24 05:50:41;;;;;;;6.85;4.60;;;486.60;2380.80;;;;;;5071918;28;20036;-77
2021/05/24 05:53:07;;;;;;;10.10;4.88;;;486.40;2380.80;;;;;;5056733;28;20024;-77
2021/05/24 05:55:33;;;;;;;6.40;4.30;;;461.70;2380.80;;;;;;5071471;28;20017;-78
2021/05/24 05:57:59;;;;;;;8.45;5.10;;;461.70;2380.80;;;;;;5055814;28;20104;-77
2021/05/24 06:00:25;;;;;;;12.20;4.75;;;486.40;2380.80;;;;;;5071501;28;20052;-78
2021/05/24 06:02:51;;;;;;;12.02;5.00;;;486.60;2380.80;;;;;;5071879;28;20032;-77
2021/05/24 06:05:17;;;;;;;6.63;4.32;;;461.70;2380.80;;;;;;5056588;28;20111;-78
2021/05/24 06:07:43;;;;;;;6.22;4.90;;;486.60;2380.80;;;;;;5071871;28;20102;-77
2021/05/24 06:10:11;;;;;;;12.02;4.32;;;486.70;2380.80;;;;;;5056379;28;20021;-78
2021/05/24 06:12:38;;;;;;;9.95;5.10;;;486.60;2380.80;;;;;;5071565;28;20155;-78
2021/05/24 06:15:04;;;;;;;5.97;4.45;;;486.70;2380.80;;;;;;5071589;28;20191;-76
2021/05/24 06:17:30;;;;;;;9.15;4.32;;;486.80;2380.80;;;;;;5071685;28;20028;-76
2021/05/24 06:19:56;;;;;;;6.13;4.55;;;486.90;2380.80;;;;;;5071338;28;20033;-76
2021/05/24 06:22:22;;;;;;;9.68;5.03;;;486.50;2380.80;;;;;;5071430;28;20021;-77
2021/05/24 06:24:48;;;;;;;6.70;4.97;;;486.50;2380.80;;;;;;5055971;28;20024;-77
2021/05/24 06:27:14;;;;;;;7.47;5.65;;;486.40;2380.80;;;;;;5055714;28;20017;-77
2021/05/24 06:29:40;;;;;;;8.50;5.18;;;486.70;2380.80;;;;;;5071313;28;20449;-77
2021/05/24 06:32:06;;;;;;;8.43;4.70;;;486.70;2380.80;;;;;;5055863;28;20071;-77
2021/05/24 06:34:31;;;;;;;11.80;5.25;;;486.60;2380.80;;;;;;5071239;28;20021;-78
2021/05/24 06:36:57;;;;;;;9.38;5.00;;;486.50;2380.80;;;;;;5071285;28;20021;-77
2021/05/24 06:39:23;;;;;;;7.28;4.75;;;486.40;2380.80;;;;;;5055482;28;20477;-77
2021/05/24 06:41:50;;;;;;;7.45;4.75;;;486.70;2380.80;;;;;;5055627;28;20021;-77
2021/05/24 06:44:17;;;;;;;7.65;4.50;;;486.90;2380.80;;;;;;5055663;28;20021;-77
2021/05/24 06:46:43;;;;;;;6.95;4.53;;;486.80;2380.80;;;;;;5070942;28;20032;-75
2021/05/24 06:49:08;;;;;;;8.40;5.00;;;486.70;2380.80;;;;;;5070646;28;20021;-75
2021/05/24 06:51:34;;;;;;;6.35;4.80;;;486.40;2380.80;;;;;;5055626;28;20032;-77
2021/05/24 06:54:00;;;;;;;6.63;4.70;;;486.70;2380.80;;;;;;5070820;28;20028;-77
2021/05/24 06:56:26;;;;;;;6.18;4.50;;;487.00;2380.80;;;;;;5070925;28;20033;-76
2021/05/24 06:58:52;;;;;;;6.53;4.38;;;487.00;2380.80;;;;;;5070852;28;20025;-76
2021/05/24 07:01:18;;;;;;;7.40;5.00;;;487.30;2380.80;;;;;;5070249;28;20473;-77
2021/05/24 07:03:43;;;;;;;7.38;4.95;;;487.30;2380.80;;;;;;5055627;28;20036;-76
2021/05/24 07:06:09;;;;;;;7.22;4.53;;;512.20;2380.80;;;;;;5053903;28;20048;-73
2021/05/24 07:08:37;;;;;;;9.25;5.10;;;512.40;2380.80;;;;;;5070506;28;20107;-73
2021/05/24 07:11:03;;;;;;;7.45;4.72;;;512.20;2380.80;;;;;;5069992;28;20052;-75
2021/05/24 07:13:29;;;;;;;7.95;5.05;;;512.10;2380.80;;;;;;5053912;28;20017;-75
2021/05/24 07:15:55;;;;;;;5.82;4.70;;;487.30;2380.80;;;;;;5053757;28;20021;-77
2021/05/24 07:18:20;;;;;;;8.65;7.18;;;512.20;2380.80;;;;;;5054889;28;20029;-78
2021/05/24 07:20:48;;;;;;;8.10;5.32;;;512.10;2380.80;;;;;;5053793;28;20075;-76
2021/05/24 07:23:14;;;;;;;7.68;5.13;;;487.30;2380.80;;;;;;5054499;28;20020;-80
2021/05/24 07:25:41;;;;;;;7.53;4.63;;;512.00;2380.80;;;;;;5051053;28;20428;-80
2021/05/24 07:28:07;;;;;;;4.97;4.10;;;512.30;2380.80;;;;;;5054369;28;20012;-78
2021/05/24 07:30:33;;;;;;;9.55;5.85;;;512.00;2380.80;;;;;;5053038;28;20360;-78
2021/05/24 07:32:59;;;;;;;9.23;4.22;;;512.10;2380.80;;;;;;5068916;28;20044;-78
2021/05/24 07:35:25;;;;;;;8.95;4.60;;;512.20;2380.80;;;;;;5052466;28;20461;-79
2021/05/24 07:37:51;;;;;;;9.25;4.82;;;537.60;2406.40;;;;;;5068306;28;20078;-78
2021/05/24 07:40:17;;;;;;;20.17;5.60;;;537.80;2406.40;;;;;;5069737;28;20072;-77
2021/05/24 07:42:43;;;;;;;8.02;4.72;;;537.90;2406.40;;;;;;5049858;28;20034;-77
2021/05/24 07:45:10;;;;;;;7.07;4.88;;;537.70;2406.40;;;;;;5034745;28;20021;-78
2021/05/24 07:47:35;;;;;;;5.70;4.82;;;512.70;2380.80;;;;;;5033516;28;20018;-76
2021/05/24 07:50:03;;;;;;;10.35;5.13;;;512.60;2380.80;;;;;;5034491;28;20025;-77
2021/05/24 07:52:29;;;;;;;6.57;4.40;;;512.90;2380.80;;;;;;5033914;28;20028;-76
2021/05/24 07:54:54;;;;;;;8.90;4.78;;;537.80;2406.40;;;;;;5033246;28;20017;-77
2021/05/24 07:57:20;;;;;;;8.80;5.45;;;537.90;2406.40;;;;;;5033368;28;20018;-76
2021/05/24 07:59:46;;;;;;;14.27;4.88;;;538.00;2406.40;;;;;;5033063;28;20025;-78
2021/05/24 08:02:12;;;;;;;6.65;5.43;;;538.40;2406.40;;;;;;5033679;28;20064;-77
2021/05/24 08:04:38;;;;;;;9.20;6.57;;;563.20;2432.00;;;;;;5032967;28;20474;-76
2021/05/24 08:07:03;;;;;;;13.77;5.75;;;563.50;2432.00;;;;;;5038213;28;20032;-76
2021/05/24 08:09:29;;;;;;;10.35;5.03;;;563.70;2432.00;;;;;;5053821;28;20029;-75
2021/05/24 08:11:55;;;;;;;5.95;4.47;;;564.00;2432.00;;;;;;5068495;28;20028;-81
2021/05/24 08:14:22;;;;;;;8.05;5.75;;;564.10;2432.00;;;;;;5053481;28;20049;-77
2021/05/24 08:16:48;;;;;;;9.10;7.50;;;563.80;2432.00;;;;;;5053803;28;20511;-78
2021/05/24 08:19:15;;;;;;;6.63;4.70;;;563.50;2432.00;;;;;;5053727;28;20112;-76
2021/05/24 08:21:45;;;;;;;7.72;3.92;;;563.20;2432.00;;;;;;5069325;28;20111;-76
2021/05/24 08:24:12;;;;;;;7.07;4.68;;;538.50;2406.40;;;;;;5069502;28;20112;-77
2021/05/24 08:26:39;;;;;;;9.95;5.03;;;538.50;2406.40;;;;;;5069073;28;20021;-77
2021/05/24 08:29:05;;;;;;;8.38;4.75;;;563.20;2432.00;;;;;;5069265;28;20441;-79
2021/05/24 08:31:32;;;;;;;11.27;4.97;;;563.30;2432.00;;;;;;5053659;28;20373;-77
2021/05/24 08:33:59;;;;;;;6.32;5.00;;;563.50;2432.00;;;;;;5053470;28;20020;-77
2021/05/24 08:36:25;;;;;;;5.80;4.07;;;563.80;2432.00;;;;;;5068756;28;20038;-75
2021/05/24 08:38:51;;;;;;;6.75;4.40;;;564.10;2432.00;;;;;;5068538;28;20134;-78
2021/05/24 08:41:18;;;;;;;15.48;4.82;;;589.00;2432.00;;;;;;5068735;28;20167;-76
2021/05/24 08:43:44;;;;;;;9.43;5.65;;;589.20;2432.00;;;;;;5068891;28;20403;-78
2021/05/24 08:46:10;;;;;;;7.05;5.22;;;589.00;2432.00;;;;;;5052049;28;20044;-78
2021/05/24 08:48:36;;;;;;;10.93;5.38;;;589.10;2406.40;;;;;;5052081;28;20086;-78
2021/05/24 08:51:05;;;;;;;10.88;5.00;;;588.90;2432.00;;;;;;5053299;28;20591;-76
2021/05/24 08:53:32;;;;;;;8.02;4.78;;;563.90;2432.00;;;;;;5049962;28;20091;-78
2021/05/24 08:55:58;;;;;;;8.65;5.25;;;588.90;2432.00;;;;;;5052356;28;20044;-78
2021/05/24 08:58:24;;;;;;;7.50;5.05;;;589.20;2406.40;;;;;;5069013;28;20116;-78
2021/05/24 09:00:51;;;;;;;7.15;4.38;;;614.40;2355.20;;;;;;5053032;28;20457;-77
2021/05/24 09:03:23;;;;;;;6.55;4.55;;;614.40;2252.80;;;;;;5068545;28;20549;-74
2021/05/24 09:05:50;;;;;;;14.50;4.50;;;589.60;2304.00;;;;;;5068623;28;20024;-74
2021/05/24 09:08:16;;;;;;;9.32;4.20;;;614.40;2329.60;;;;;;5068748;28;20372;-75
2021/05/24 09:10:44;;;;;;;10.23;5.15;;;614.60;2227.20;;;;;;5053325;28;20053;-75
2021/05/24 09:13:12;;;;;;;21.67;9.57;;;614.90;2278.40;;;;;;5071712;28;20021;-76
2021/05/24 09:15:41;;;;;;;11.07;6.38;;;614.60;2176.00;;;;;;5072754;28;20483;-77
2021/05/24 09:18:09;;;;;;;12.40;5.22;;;589.70;2227.20;;;;;;5072529;28;20020;-77
2021/05/24 09:20:36;;;;;;;5.63;4.25;;;614.70;2252.80;;;;;;5072360;28;20044;-75
2021/05/24 09:23:07;;;;;;;11.68;6.22;;;589.70;2227.20;;;;;;5057621;28;20032;-75
2021/05/24 09:25:50;;;;;;;5.30;3.70;;;614.50;2201.60;;;;;;5057194;28;20514;-76
2021/05/24 09:28:39;;;;;;;11.52;5.47;;;589.70;2201.60;;;;;;5072495;28;20028;-76
2021/05/24 09:31:11;;;;;;;13.77;7.00;;;614.90;2176.00;;;;;;5071684;28;20468;-76
2021/05/24 09:33:39;;;;;;;7.95;4.43;;;615.00;2150.40;;;;;;5054631;28;20021;-76
2021/05/24 09:36:06;;;;;;;7.32;4.38;;;615.00;2124.80;;;;;;5055367;28;20464;-77
2021/05/24 09:38:53;;;;;;;7.40;4.85;;;614.80;2073.60;;;;;;5055379;28;20040;-76
2021/05/24 09:41:21;;;;;;;12.70;5.18;;;615.20;2073.60;;;;;;5057101;28;20028;-76
2021/05/24 09:43:49;;;;;;;10.60;4.82;;;640.40;2022.40;;;;;;5055496;28;20048;-76
2021/05/24 09:46:28;;;;;;;8.65;4.57;;;640.40;1971.20;;;;;;5072256;28;20021;-77
2021/05/24 09:48:56;;;;;;;8.90;3.65;;;640.60;1945.60;;;;;;5051408;28;20029;-77
2021/05/24 09:51:27;;;;;;;10.23;5.30;;;640.60;1971.20;;;;;;5055670;28;20047;-77
2021/05/24 09:54:00;;;;;;;10.68;5.43;;;665.60;1971.20;;;;;;5056878;28;20025;-76
2021/05/24 09:56:32;;;;;;;5.35;3.53;;;665.80;1894.40;;;;;;5071851;28;20025;-75
2021/05/24 09:59:08;;;;;;;5.75;3.40;;;666.20;1792.00;;;;;;5055992;28;20056;-75
2021/05/24 10:01:41;;;;;;;5.85;4.00;;;666.30;1664.00;;;;;;5055433;28;20507;-76
2021/05/24 10:04:10;;;;;;;7.13;4.75;;;666.50;1689.60;;;;;;5071759;28;20028;-77
2021/05/24 10:06:36;;;;;;;10.32;4.65;;;666.40;1664.00;;;;;;5056111;28;20025;-78
2021/05/24 10:09:05;;;;;;;8.52;5.65;;;691.20;1664.00;;;;;;5056778;28;20013;-75
2021/05/24 10:11:31;;;;;;;8.68;4.30;;;691.40;1664.00;;;;;;5051444;28;20033;-75
2021/05/24 10:13:57;;;;;;;8.18;3.75;;;691.50;1587.20;;;;;;5056635;28;20028;-77
2021/05/24 10:16:27;;;;;;;7.20;3.53;;;691.30;1612.80;;;;;;5056080;28;20491;-75
2021/05/24 10:18:53;;;;;;;11.30;4.82;;;691.40;1612.80;;;;;;5056452;28;20029;-78
2021/05/24 10:21:19;;;;;;;12.27;5.97;;;691.40;1587.20;;;;;;5051808;28;20372;-77
2021/05/24 10:23:44;;;;;;;9.00;5.65;;;691.80;1561.60;;;;;;5051139;28;20024;-76
2021/05/24 10:26:12;;;;;;;10.10;3.45;;;692.00;1536.00;;;;;;5054184;28;20445;-77
2021/05/24 10:28:38;;;;;;;8.07;4.25;;;692.10;1536.00;;;;;;5052313;28;20013;-78
2021/05/24 10:31:05;;;;;;;12.45;6.60;;;692.00;1536.00;;;;;;5054166;28;20039;-76
2021/05/24 10:33:39;;;;;;;8.98;4.68;;;716.80;1536.00;;;;;;5069414;28;20021;-76
2021/05/24 10:36:32;;;;;;;13.18;8.73;;;717.20;1561.60;;;;;;5054566;28;20469;-77
2021/05/24 10:39:16;;;;;;;12.05;5.75;;;717.50;1510.40;;;;;;5052034;28;20094;-77
2021/05/24 10:41:46;;;;;;;12.18;7.38;;;717.60;1510.40;;;;;;5054515;28;20476;-77
2021/05/24 10:44:17;;;;;;;5.90;4.60;;;742.40;1484.80;;;;;;5054574;28;20025;-76
2021/05/24 10:46:44;;;;;;;8.68;3.33;;;717.70;1484.80;;;;;;5071047;28;20078;-77
2021/05/24 10:49:12;;;;;;;12.27;5.00;;;742.50;1484.80;;;;;;5053745;28;20036;-76
2021/05/24 10:51:47;;;;;;;8.00;4.63;;;717.70;1433.60;;;;;;5054110;28;20535;-77
2021/05/24 10:54:24;;;;;;;7.53;4.35;;;717.70;1459.20;;;;;;5054093;28;20036;-78
2021/05/24 10:56:59;;;;;;;6.85;3.60;;;742.50;1459.20;;;;;;5054138;28;20017;-75
2021/05/24 10:59:40;;;;;;;13.38;3.88;;;742.60;1459.20;;;;;;5050179;28;20018;-76
2021/05/24 11:02:13;;;;;;;9.15;3.90;;;742.80;1510.40;;;;;;5042212;28;20091;-77
2021/05/24 11:04:59;;;;;;;6.07;3.42;;;742.90;1484.80;;;;;;5035211;28;20025;-78
2021/05/24 11:07:32;;;;;;;16.30;5.80;;;743.00;1408.00;;;;;;5050637;28;20339;-75
2021/05/24 11:10:20;;;;;;;6.78;2.92;;;742.80;1459.20;;;;;;5033784;28;20163;-76
2021/05/24 11:12:48;;;;;;;8.38;5.00;;;742.60;1433.60;;;;;;5034004;28;20112;-75
2021/05/24 11:15:29;;;;;;;15.73;4.00;;;717.50;1433.60;;;;;;5050723;28;20026;-76
2021/05/24 11:18:00;;;;;;;14.68;3.40;;;742.50;1459.20;;;;;;5050699;28;20021;-77
2021/05/24 11:20:34;;;;;;;4.47;2.65;;;742.60;1433.60;;;;;;5033659;28;20021;-77
2021/05/24 11:23:43;;;;;;;8.18;3.65;;;742.90;1433.60;;;;;;5035211;28;20017;-77
2021/05/24 11:26:33;;;;;;;17.73;8.52;;;743.00;1408.00;;;;;;5033934;28;20025;-77
2021/05/24 11:29:07;;;;;;;12.50;4.03;;;743.10;1433.60;;;;;;5034773;28;20017;-79
2021/05/24 11:31:36;;;;;;;8.25;3.95;;;743.20;1433.60;;;;;;5035270;28;20104;-79
2021/05/24 11:34:04;;;;;;;5.05;2.70;;;768.10;1433.60;;;;;;5033558;28;20384;-80
2021/05/24 11:36:36;;;;;;;11.25;3.20;;;768.50;1408.00;;;;;;5050085;28;20021;-80
2021/05/24 11:39:04;;;;;;;9.52;3.30;;;768.60;1408.00;;;;;;5033346;28;20048;-77
2021/05/24 11:41:31;;;;;;;9.73;3.33;;;768.70;1382.40;;;;;;5033307;28;20030;-77
2021/05/24 11:44:00;;;;;;;7.95;3.42;;;768.60;1382.40;;;;;;5050114;28;20029;-83
2021/05/24 11:46:26;;;;;;;7.78;3.22;;;768.70;1382.40;;;;;;5050207;28;20021;-76
2021/05/24 11:48:53;;;;;;;5.70;3.85;;;768.70;1408.00;;;;;;5049872;28;20485;-78
2021/05/24 11:51:33;;;;;;;7.47;2.83;;;768.70;1408.00;;;;;;5034566;28;20087;-78
2021/05/24 11:54:20;;;;;;;7.22;3.13;;;768.40;1408.00;;;;;;5059374;28;20025;-77
2021/05/24 11:56:49;;;;;;;11.45;5.13;;;743.00;1459.20;;;;;;5069018;28;20052;-77
2021/05/24 11:59:21;;;;;;;7.78;5.00;;;743.20;1433.60;;;;;;5054053;28;20050;-76
2021/05/24 12:01:49;;;;;;;11.37;7.47;;;768.00;1433.60;;;;;;5069547;28;20025;-76
2021/05/24 12:04:17;;;;;;;8.32;4.22;;;768.60;1459.20;;;;;;5069332;28;20265;-79
2021/05/24 12:06:50;;;;;;;9.13;3.88;;;768.60;1382.40;;;;;;5069609;28;20056;-78
2021/05/24 12:09:42;;;;;;;10.70;6.80;;;768.20;1382.40;;;;;;5052932;28;20048;-79
2021/05/24 12:12:13;;;;;;;22.03;6.37;;;768.50;1408.00;;;;;;5069547;28;20047;-76
2021/05/24 12:14:41;;;;;;;13.73;5.32;;;768.90;1356.80;;;;;;5053987;28;20032;-78
2021/05/24 12:17:19;;;;;;;8.55;4.15;;;793.70;1408.00;;;;;;5069252;28;20032;-77
2021/05/24 12:19:46;;;;;;;10.60;3.55;;;793.80;1382.40;;;;;;5054003;28;20112;-78